Главная страница
METAR-TAF:

METAR-TAF

Аэропорты :

Гран-Канария, Испания

широта: 27-56N, долгота: 015-23W, высота над уровнем моря: 23 м

Текущие метеонаблюдения

Эта сводка был подготовлена 15 минут назад, в 02:00 UTC
Ветер 15 Узел от северный
Температура 21°C
Влажность 78%
Давление 1020 hPa
Видимость 10 км и более
Отдельные облака на высоте 2500 фута

METAR: GCLP 100200Z 36015KT 9999 SCT025 21/17 Q1020 NOSIG

Время: 03:15 (02:15 UTC)

Прогноз

Эта сводка был подготовлена 6 часа и 15 минут назад, в 20:00 UTC
Прогноз действительный с 09-го 21 UTC до 10-го 21 UTC
Ветер 16 Узел от северный
Видимость 10 км и более
Отдельные облака на высоте 2000 фута

TAF: GCLP 092000Z 0921/1021 36016KT 9999 SCT020 TX24/1013Z TN19/1005Z

Метеонаблюдения и прогнозы для более 4000 аэропортов (сводки METAR и TAF).

Имеющиеся станции представлены на карте желтыми и красными точками.

Чтобы увидеть название станции, наведите на нее мышь.

Затем щелкните, чтобы увидеть метеонаблюдения и метеопрогнозы.

Управление картой: чтобы увеличить масштаб, щелкните зеленые кнопки с черным крестиком; чтобы уменьшить масштаб, щелкните зеленую кнопку с тире; для просмотра соседних карт щелкайте зеленые стрелки.


METAR-TAF: